sensor_id;sensor_type;location;lat;lon;timestamp;P1;durP1;ratioP1;P2;durP2;ratioP2
12871;SDS011;6504;53.766;9.626;2023-04-15T00:00:02;4.37;;;3.97;;
12871;SDS011;6504;53.766;9.626;2023-04-15T00:02:31;4.20;;;3.90;;
12871;SDS011;6504;53.766;9.626;2023-04-15T00:04:59;4.57;;;3.93;;
12871;SDS011;6504;53.766;9.626;2023-04-15T00:07:29;4.30;;;3.90;;
12871;SDS011;6504;53.766;9.626;2023-04-15T00:09:57;5.23;;;4.33;;
12871;SDS011;6504;53.766;9.626;2023-04-15T00:12:25;4.40;;;4.00;;
12871;SDS011;6504;53.766;9.626;2023-04-15T00:14:54;4.00;;;3.60;;
12871;SDS011;6504;53.766;9.626;2023-04-15T00:17:22;4.03;;;3.63;;
12871;SDS011;6504;53.766;9.626;2023-04-15T00:19:50;4.07;;;3.70;;
12871;SDS011;6504;53.766;9.626;2023-04-15T00:22:18;4.63;;;3.80;;
12871;SDS011;6504;53.766;9.626;2023-04-15T00:24:48;4.40;;;3.73;;
12871;SDS011;6504;53.766;9.626;2023-04-15T00:27:16;3.90;;;3.60;;
12871;SDS011;6504;53.766;9.626;2023-04-15T00:29:44;4.10;;;3.70;;
12871;SDS011;6504;53.766;9.626;2023-04-15T00:32:12;3.70;;;3.40;;
12871;SDS011;6504;53.766;9.626;2023-04-15T00:34:40;4.33;;;3.93;;
12871;SDS011;6504;53.766;9.626;2023-04-15T00:37:08;3.90;;;3.60;;
12871;SDS011;6504;53.766;9.626;2023-04-15T00:39:37;4.67;;;4.10;;
12871;SDS011;6504;53.766;9.626;2023-04-15T00:42:06;5.00;;;4.50;;
12871;SDS011;6504;53.766;9.626;2023-04-15T00:44:35;4.87;;;4.20;;
12871;SDS011;6504;53.766;9.626;2023-04-15T00:47:03;4.70;;;4.30;;
12871;SDS011;6504;53.766;9.626;2023-04-15T00:49:33;4.60;;;4.20;;
12871;SDS011;6504;53.766;9.626;2023-04-15T00:52:01;6.20;;;4.57;;
12871;SDS011;6504;53.766;9.626;2023-04-15T00:54:29;4.60;;;4.20;;
12871;SDS011;6504;53.766;9.626;2023-04-15T00:56:57;4.93;;;4.53;;
12871;SDS011;6504;53.766;9.626;2023-04-15T00:59:27;5.20;;;4.70;;
12871;SDS011;6504;53.766;9.626;2023-04-15T01:01:56;5.07;;;4.33;;
12871;SDS011;6504;53.766;9.626;2023-04-15T01:04:24;5.30;;;4.80;;
12871;SDS011;6504;53.766;9.626;2023-04-15T01:06:52;5.30;;;4.80;;
12871;SDS011;6504;53.766;9.626;2023-04-15T01:09:20;6.40;;;5.27;;
12871;SDS011;6504;53.766;9.626;2023-04-15T01:11:48;6.00;;;5.37;;
12871;SDS011;6504;53.766;9.626;2023-04-15T01:14:17;5.10;;;4.70;;
12871;SDS011;6504;53.766;9.626;2023-04-15T01:16:46;6.20;;;5.60;;
12871;SDS011;6504;53.766;9.626;2023-04-15T01:19:15;5.70;;;5.20;;
12871;SDS011;6504;53.766;9.626;2023-04-15T01:21:43;6.70;;;5.60;;
12871;SDS011;6504;53.766;9.626;2023-04-15T01:24:12;5.87;;;5.37;;
12871;SDS011;6504;53.766;9.626;2023-04-15T01:26:45;6.57;;;5.70;;
12871;SDS011;6504;53.766;9.626;2023-04-15T01:29:15;6.30;;;5.70;;
12871;SDS011;6504;53.766;9.626;2023-04-15T01:31:48;6.07;;;5.47;;
12871;SDS011;6504;53.766;9.626;2023-04-15T01:34:17;6.83;;;5.80;;
12871;SDS011;6504;53.766;9.626;2023-04-15T01:36:46;6.90;;;6.30;;
12871;SDS011;6504;53.766;9.626;2023-04-15T01:39:14;6.80;;;6.20;;
12871;SDS011;6504;53.766;9.626;2023-04-15T01:41:42;6.60;;;5.90;;
12871;SDS011;6504;53.766;9.626;2023-04-15T01:44:11;6.90;;;6.20;;
12871;SDS011;6504;53.766;9.626;2023-04-15T01:46:39;7.20;;;6.50;;
12871;SDS011;6504;53.766;9.626;2023-04-15T01:49:07;7.17;;;6.47;;
12871;SDS011;6504;53.766;9.626;2023-04-15T01:51:35;6.40;;;5.80;;
12871;SDS011;6504;53.766;9.626;2023-04-15T01:54:03;6.43;;;5.83;;
12871;SDS011;6504;53.766;9.626;2023-04-15T01:56:31;7.20;;;6.50;;
12871;SDS011;6504;53.766;9.626;2023-04-15T01:58:59;7.27;;;6.57;;
12871;SDS011;6504;53.766;9.626;2023-04-15T02:01:30;7.57;;;6.77;;
12871;SDS011;6504;53.766;9.626;2023-04-15T02:03:58;7.20;;;6.50;;
12871;SDS011;6504;53.766;9.626;2023-04-15T02:06:27;7.13;;;6.43;;
12871;SDS011;6504;53.766;9.626;2023-04-15T02:08:55;7.53;;;6.73;;
12871;SDS011;6504;53.766;9.626;2023-04-15T02:11:24;7.63;;;6.50;;
12871;SDS011;6504;53.766;9.626;2023-04-15T02:13:52;7.53;;;6.83;;
12871;SDS011;6504;53.766;9.626;2023-04-15T02:16:20;7.57;;;6.77;;
12871;SDS011;6504;53.766;9.626;2023-04-15T02:18:49;7.00;;;6.40;;
12871;SDS011;6504;53.766;9.626;2023-04-15T02:21:18;7.50;;;6.43;;
12871;SDS011;6504;53.766;9.626;2023-04-15T02:23:46;7.23;;;6.53;;
12871;SDS011;6504;53.766;9.626;2023-04-15T02:26:14;7.23;;;6.53;;
12871;SDS011;6504;53.766;9.626;2023-04-15T02:28:42;7.73;;;6.47;;
12871;SDS011;6504;53.766;9.626;2023-04-15T02:31:10;6.27;;;5.67;;
12871;SDS011;6504;53.766;9.626;2023-04-15T02:33:38;6.73;;;6.03;;
12871;SDS011;6504;53.766;9.626;2023-04-15T02:36:08;6.97;;;6.27;;
12871;SDS011;6504;53.766;9.626;2023-04-15T02:38:37;7.33;;;6.63;;
12871;SDS011;6504;53.766;9.626;2023-04-15T02:41:07;7.10;;;6.40;;
12871;SDS011;6504;53.766;9.626;2023-04-15T02:43:36;7.00;;;6.30;;
12871;SDS011;6504;53.766;9.626;2023-04-15T02:46:05;6.40;;;5.80;;
12871;SDS011;6504;53.766;9.626;2023-04-15T02:48:33;6.33;;;5.73;;
12871;SDS011;6504;53.766;9.626;2023-04-15T02:51:13;6.80;;;6.10;;
12871;SDS011;6504;53.766;9.626;2023-04-15T02:53:42;6.53;;;5.83;;
12871;SDS011;6504;53.766;9.626;2023-04-15T02:56:10;6.50;;;5.90;;
12871;SDS011;6504;53.766;9.626;2023-04-15T02:58:38;6.57;;;5.97;;
12871;SDS011;6504;53.766;9.626;2023-04-15T03:01:06;7.13;;;6.10;;
12871;SDS011;6504;53.766;9.626;2023-04-15T03:03:35;6.50;;;5.90;;
12871;SDS011;6504;53.766;9.626;2023-04-15T03:06:03;6.80;;;6.10;;
12871;SDS011;6504;53.766;9.626;2023-04-15T03:08:33;6.60;;;6.00;;
12871;SDS011;6504;53.766;9.626;2023-04-15T03:11:01;6.50;;;5.90;;
12871;SDS011;6504;53.766;9.626;2023-04-15T03:13:29;7.97;;;6.70;;
12871;SDS011;6504;53.766;9.626;2023-04-15T03:15:57;7.20;;;6.43;;
12871;SDS011;6504;53.766;9.626;2023-04-15T03:18:26;6.93;;;6.30;;
12871;SDS011;6504;53.766;9.626;2023-04-15T03:20:54;6.90;;;6.30;;
12871;SDS011;6504;53.766;9.626;2023-04-15T03:23:22;7.53;;;6.73;;
12871;SDS011;6504;53.766;9.626;2023-04-15T03:25:52;7.07;;;6.37;;
12871;SDS011;6504;53.766;9.626;2023-04-15T03:28:22;7.13;;;6.43;;
12871;SDS011;6504;53.766;9.626;2023-04-15T03:30:50;7.73;;;6.67;;
12871;SDS011;6504;53.766;9.626;2023-04-15T03:33:18;7.23;;;6.53;;
12871;SDS011;6504;53.766;9.626;2023-04-15T03:35:46;7.73;;;6.80;;
12871;SDS011;6504;53.766;9.626;2023-04-15T03:38:15;7.70;;;6.90;;
12871;SDS011;6504;53.766;9.626;2023-04-15T03:40:43;8.13;;;7.33;;
12871;SDS011;6504;53.766;9.626;2023-04-15T03:43:13;8.17;;;7.37;;
12871;SDS011;6504;53.766;9.626;2023-04-15T03:45:41;8.00;;;7.20;;
12871;SDS011;6504;53.766;9.626;2023-04-15T03:48:09;8.27;;;7.47;;
12871;SDS011;6504;53.766;9.626;2023-04-15T03:50:43;8.17;;;7.37;;
12871;SDS011;6504;53.766;9.626;2023-04-15T03:53:11;8.67;;;7.87;;
12871;SDS011;6504;53.766;9.626;2023-04-15T03:55:39;9.53;;;8.20;;
12871;SDS011;6504;53.766;9.626;2023-04-15T03:58:07;8.90;;;8.00;;
12871;SDS011;6504;53.766;9.626;2023-04-15T04:00:39;9.77;;;8.77;;
12871;SDS011;6504;53.766;9.626;2023-04-15T04:03:07;9.83;;;8.87;;
12871;SDS011;6504;53.766;9.626;2023-04-15T04:05:36;9.43;;;8.43;;
12871;SDS011;6504;53.766;9.626;2023-04-15T04:08:06;9.47;;;8.30;;
12871;SDS011;6504;53.766;9.626;2023-04-15T04:10:34;9.53;;;8.53;;
12871;SDS011;6504;53.766;9.626;2023-04-15T04:13:02;10.10;;;9.00;;
12871;SDS011;6504;53.766;9.626;2023-04-15T04:15:30;11.43;;;10.27;;
12871;SDS011;6504;53.766;9.626;2023-04-15T04:18:00;10.70;;;9.60;;
12871;SDS011;6504;53.766;9.626;2023-04-15T04:20:29;11.17;;;9.73;;
12871;SDS011;6504;53.766;9.626;2023-04-15T04:22:57;11.70;;;9.60;;
12871;SDS011;6504;53.766;9.626;2023-04-15T04:25:25;12.50;;;10.33;;
12871;SDS011;6504;53.766;9.626;2023-04-15T04:27:53;11.37;;;10.03;;
12871;SDS011;6504;53.766;9.626;2023-04-15T04:30:21;11.97;;;10.40;;
12871;SDS011;6504;53.766;9.626;2023-04-15T04:32:49;12.97;;;10.77;;
12871;SDS011;6504;53.766;9.626;2023-04-15T04:35:19;12.33;;;10.90;;
12871;SDS011;6504;53.766;9.626;2023-04-15T04:37:47;12.33;;;11.03;;
12871;SDS011;6504;53.766;9.626;2023-04-15T04:40:16;12.70;;;11.40;;
12871;SDS011;6504;53.766;9.626;2023-04-15T04:42:44;13.83;;;11.77;;
12871;SDS011;6504;53.766;9.626;2023-04-15T04:45:12;12.03;;;10.60;;
12871;SDS011;6504;53.766;9.626;2023-04-15T04:47:40;12.47;;;11.17;;
12871;SDS011;6504;53.766;9.626;2023-04-15T04:50:08;13.83;;;11.93;;
12871;SDS011;6504;53.766;9.626;2023-04-15T04:52:38;14.40;;;12.70;;
12871;SDS011;6504;53.766;9.626;2023-04-15T04:55:06;13.70;;;12.20;;
12871;SDS011;6504;53.766;9.626;2023-04-15T04:57:36;15.47;;;13.33;;
12871;SDS011;6504;53.766;9.626;2023-04-15T05:00:06;14.50;;;12.97;;
12871;SDS011;6504;53.766;9.626;2023-04-15T05:02:36;14.63;;;12.87;;
12871;SDS011;6504;53.766;9.626;2023-04-15T05:05:04;15.80;;;13.13;;
12871;SDS011;6504;53.766;9.626;2023-04-15T05:07:33;15.83;;;14.00;;
12871;SDS011;6504;53.766;9.626;2023-04-15T05:10:03;17.83;;;14.77;;
12871;SDS011;6504;53.766;9.626;2023-04-15T05:12:31;17.50;;;15.27;;
12871;SDS011;6504;53.766;9.626;2023-04-15T05:14:59;18.73;;;16.20;;
12871;SDS011;6504;53.766;9.626;2023-04-15T05:17:27;18.87;;;16.40;;
12871;SDS011;6504;53.766;9.626;2023-04-15T05:19:57;20.43;;;17.10;;
12871;SDS011;6504;53.766;9.626;2023-04-15T05:22:25;21.13;;;18.17;;
12871;SDS011;6504;53.766;9.626;2023-04-15T05:24:53;25.47;;;18.87;;
12871;SDS011;6504;53.766;9.626;2023-04-15T05:27:22;24.43;;;20.13;;
12871;SDS011;6504;53.766;9.626;2023-04-15T05:29:50;25.77;;;20.83;;
12871;SDS011;6504;53.766;9.626;2023-04-15T05:32:19;26.40;;;20.07;;
12871;SDS011;6504;53.766;9.626;2023-04-15T05:34:47;26.00;;;19.70;;
12871;SDS011;6504;53.766;9.626;2023-04-15T05:37:15;23.23;;;18.40;;
12871;SDS011;6504;53.766;9.626;2023-04-15T05:39:46;25.50;;;19.67;;
12871;SDS011;6504;53.766;9.626;2023-04-15T05:42:14;23.40;;;18.80;;
12871;SDS011;6504;53.766;9.626;2023-04-15T05:44:43;25.87;;;18.90;;
12871;SDS011;6504;53.766;9.626;2023-04-15T05:47:11;22.40;;;18.27;;
12871;SDS011;6504;53.766;9.626;2023-04-15T05:49:40;24.77;;;18.70;;
12871;SDS011;6504;53.766;9.626;2023-04-15T05:52:08;23.23;;;19.40;;
12871;SDS011;6504;53.766;9.626;2023-04-15T05:54:36;23.47;;;18.73;;
12871;SDS011;6504;53.766;9.626;2023-04-15T05:57:04;21.57;;;18.07;;
12871;SDS011;6504;53.766;9.626;2023-04-15T05:59:33;23.27;;;20.77;;
12871;SDS011;6504;53.766;9.626;2023-04-15T06:02:03;24.80;;;19.80;;
12871;SDS011;6504;53.766;9.626;2023-04-15T06:04:32;22.13;;;19.70;;
12871;SDS011;6504;53.766;9.626;2023-04-15T06:07:01;23.83;;;18.73;;
12871;SDS011;6504;53.766;9.626;2023-04-15T06:09:29;23.93;;;19.40;;
12871;SDS011;6504;53.766;9.626;2023-04-15T06:11:57;23.93;;;20.40;;
12871;SDS011;6504;53.766;9.626;2023-04-15T06:14:26;23.40;;;19.63;;
12871;SDS011;6504;53.766;9.626;2023-04-15T06:16:54;25.30;;;19.70;;
12871;SDS011;6504;53.766;9.626;2023-04-15T06:19:24;23.03;;;19.80;;
12871;SDS011;6504;53.766;9.626;2023-04-15T06:21:52;21.73;;;19.00;;
12871;SDS011;6504;53.766;9.626;2023-04-15T06:24:20;21.30;;;18.17;;
12871;SDS011;6504;53.766;9.626;2023-04-15T06:26:48;25.53;;;20.53;;
12871;SDS011;6504;53.766;9.626;2023-04-15T06:29:16;23.60;;;20.00;;
12871;SDS011;6504;53.766;9.626;2023-04-15T06:31:45;22.03;;;19.30;;
12871;SDS011;6504;53.766;9.626;2023-04-15T06:34:14;22.90;;;19.33;;
12871;SDS011;6504;53.766;9.626;2023-04-15T06:36:43;22.90;;;19.73;;
12871;SDS011;6504;53.766;9.626;2023-04-15T06:39:12;22.70;;;19.23;;
12871;SDS011;6504;53.766;9.626;2023-04-15T06:41:40;26.07;;;20.57;;
12871;SDS011;6504;53.766;9.626;2023-04-15T06:44:08;26.83;;;21.47;;
12871;SDS011;6504;53.766;9.626;2023-04-15T06:46:36;26.07;;;20.97;;
12871;SDS011;6504;53.766;9.626;2023-04-15T06:49:04;25.07;;;19.83;;
12871;SDS011;6504;53.766;9.626;2023-04-15T06:51:33;24.97;;;20.07;;
12871;SDS011;6504;53.766;9.626;2023-04-15T06:54:02;24.17;;;20.73;;
12871;SDS011;6504;53.766;9.626;2023-04-15T06:56:31;23.40;;;20.37;;
12871;SDS011;6504;53.766;9.626;2023-04-15T06:58:59;25.33;;;20.47;;
12871;SDS011;6504;53.766;9.626;2023-04-15T07:01:28;26.23;;;21.40;;
12871;SDS011;6504;53.766;9.626;2023-04-15T07:03:56;26.30;;;21.23;;
12871;SDS011;6504;53.766;9.626;2023-04-15T07:06:24;27.03;;;22.03;;
12871;SDS011;6504;53.766;9.626;2023-04-15T07:08:52;25.43;;;20.73;;
12871;SDS011;6504;53.766;9.626;2023-04-15T07:11:22;28.03;;;22.63;;
12871;SDS011;6504;53.766;9.626;2023-04-15T07:13:52;28.77;;;23.33;;
12871;SDS011;6504;53.766;9.626;2023-04-15T07:16:21;28.50;;;24.20;;
12871;SDS011;6504;53.766;9.626;2023-04-15T07:18:49;30.70;;;25.07;;
12871;SDS011;6504;53.766;9.626;2023-04-15T07:21:17;32.13;;;25.03;;
12871;SDS011;6504;53.766;9.626;2023-04-15T07:23:45;31.40;;;24.83;;
12871;SDS011;6504;53.766;9.626;2023-04-15T07:26:13;36.20;;;27.80;;
12871;SDS011;6504;53.766;9.626;2023-04-15T07:28:43;36.43;;;29.53;;
12871;SDS011;6504;53.766;9.626;2023-04-15T07:31:11;37.03;;;28.50;;
12871;SDS011;6504;53.766;9.626;2023-04-15T07:33:40;39.07;;;29.17;;
12871;SDS011;6504;53.766;9.626;2023-04-15T07:36:08;42.00;;;30.87;;
12871;SDS011;6504;53.766;9.626;2023-04-15T07:38:36;40.50;;;30.57;;
12871;SDS011;6504;53.766;9.626;2023-04-15T07:41:04;45.47;;;31.60;;
12871;SDS011;6504;53.766;9.626;2023-04-15T07:43:33;38.60;;;31.80;;
12871;SDS011;6504;53.766;9.626;2023-04-15T07:46:03;42.70;;;32.70;;
12871;SDS011;6504;53.766;9.626;2023-04-15T07:48:32;43.53;;;33.03;;
12871;SDS011;6504;53.766;9.626;2023-04-15T07:51:02;43.67;;;33.20;;
12871;SDS011;6504;53.766;9.626;2023-04-15T07:53:31;42.30;;;33.00;;
12871;SDS011;6504;53.766;9.626;2023-04-15T07:55:59;47.87;;;34.80;;
12871;SDS011;6504;53.766;9.626;2023-04-15T07:58:27;44.17;;;33.93;;
12871;SDS011;6504;53.766;9.626;2023-04-15T08:00:55;43.30;;;34.43;;
12871;SDS011;6504;53.766;9.626;2023-04-15T08:03:25;44.47;;;34.30;;
12871;SDS011;6504;53.766;9.626;2023-04-15T08:05:53;41.83;;;33.73;;
12871;SDS011;6504;53.766;9.626;2023-04-15T08:08:21;43.60;;;34.60;;
12871;SDS011;6504;53.766;9.626;2023-04-15T08:10:49;47.63;;;36.93;;
12871;SDS011;6504;53.766;9.626;2023-04-15T08:13:18;46.80;;;37.03;;
12871;SDS011;6504;53.766;9.626;2023-04-15T08:18:42;49.00;;;38.07;;
12871;SDS011;6504;53.766;9.626;2023-04-15T08:21:11;50.50;;;37.83;;
12871;SDS011;6504;53.766;9.626;2023-04-15T08:23:39;54.50;;;39.43;;
12871;SDS011;6504;53.766;9.626;2023-04-15T08:26:08;51.83;;;37.63;;
12871;SDS011;6504;53.766;9.626;2023-04-15T08:28:37;49.27;;;37.60;;
12871;SDS011;6504;53.766;9.626;2023-04-15T08:31:06;50.90;;;38.37;;
12871;SDS011;6504;53.766;9.626;2023-04-15T08:33:35;51.43;;;38.70;;
12871;SDS011;6504;53.766;9.626;2023-04-15T08:36:04;48.43;;;38.77;;
12871;SDS011;6504;53.766;9.626;2023-04-15T08:38:33;51.07;;;38.73;;
12871;SDS011;6504;53.766;9.626;2023-04-15T08:41:02;49.10;;;38.33;;
12871;SDS011;6504;53.766;9.626;2023-04-15T08:43:34;52.23;;;40.07;;
12871;SDS011;6504;53.766;9.626;2023-04-15T08:46:09;49.03;;;38.20;;
12871;SDS011;6504;53.766;9.626;2023-04-15T08:48:39;49.97;;;37.63;;
12871;SDS011;6504;53.766;9.626;2023-04-15T08:51:09;47.07;;;35.70;;
12871;SDS011;6504;53.766;9.626;2023-04-15T08:53:41;47.53;;;36.23;;
12871;SDS011;6504;53.766;9.626;2023-04-15T08:56:11;46.77;;;36.30;;
12871;SDS011;6504;53.766;9.626;2023-04-15T08:58:42;50.13;;;36.63;;
12871;SDS011;6504;53.766;9.626;2023-04-15T09:01:11;47.90;;;36.50;;
12871;SDS011;6504;53.766;9.626;2023-04-15T09:03:41;46.90;;;37.33;;
12871;SDS011;6504;53.766;9.626;2023-04-15T09:06:11;46.43;;;37.73;;
12871;SDS011;6504;53.766;9.626;2023-04-15T09:08:40;49.53;;;37.20;;
12871;SDS011;6504;53.766;9.626;2023-04-15T09:11:08;48.43;;;36.07;;
12871;SDS011;6504;53.766;9.626;2023-04-15T09:13:36;47.33;;;37.20;;
12871;SDS011;6504;53.766;9.626;2023-04-15T09:16:05;49.77;;;37.97;;
12871;SDS011;6504;53.766;9.626;2023-04-15T09:18:34;49.10;;;36.87;;
12871;SDS011;6504;53.766;9.626;2023-04-15T09:21:03;47.50;;;37.03;;
12871;SDS011;6504;53.766;9.626;2023-04-15T09:23:35;48.60;;;36.73;;
12871;SDS011;6504;53.766;9.626;2023-04-15T09:26:04;52.07;;;37.43;;
12871;SDS011;6504;53.766;9.626;2023-04-15T09:28:33;46.03;;;35.87;;
12871;SDS011;6504;53.766;9.626;2023-04-15T09:31:08;47.67;;;35.63;;
12871;SDS011;6504;53.766;9.626;2023-04-15T09:33:52;43.13;;;34.13;;
12871;SDS011;6504;53.766;9.626;2023-04-15T09:36:22;46.20;;;35.90;;
12871;SDS011;6504;53.766;9.626;2023-04-15T09:38:54;43.07;;;35.40;;
12871;SDS011;6504;53.766;9.626;2023-04-15T09:41:23;46.33;;;36.73;;
12871;SDS011;6504;53.766;9.626;2023-04-15T09:43:51;43.10;;;34.93;;
12871;SDS011;6504;53.766;9.626;2023-04-15T09:46:19;46.30;;;35.33;;
12871;SDS011;6504;53.766;9.626;2023-04-15T09:49:06;43.80;;;35.00;;
12871;SDS011;6504;53.766;9.626;2023-04-15T09:51:35;42.50;;;34.47;;
12871;SDS011;6504;53.766;9.626;2023-04-15T09:54:05;44.03;;;35.87;;
12871;SDS011;6504;53.766;9.626;2023-04-15T09:56:33;44.00;;;35.23;;
12871;SDS011;6504;53.766;9.626;2023-04-15T09:59:03;44.73;;;36.23;;
12871;SDS011;6504;53.766;9.626;2023-04-15T10:01:32;45.87;;;35.93;;
12871;SDS011;6504;53.766;9.626;2023-04-15T10:04:02;42.13;;;37.17;;
12871;SDS011;6504;53.766;9.626;2023-04-15T10:06:31;42.50;;;35.07;;
12871;SDS011;6504;53.766;9.626;2023-04-15T10:09:00;43.83;;;35.33;;
12871;SDS011;6504;53.766;9.626;2023-04-15T10:11:30;45.50;;;36.73;;
12871;SDS011;6504;53.766;9.626;2023-04-15T10:14:01;45.17;;;35.70;;
12871;SDS011;6504;53.766;9.626;2023-04-15T10:16:30;43.57;;;36.10;;
12871;SDS011;6504;53.766;9.626;2023-04-15T10:19:00;45.80;;;35.87;;
12871;SDS011;6504;53.766;9.626;2023-04-15T10:21:29;43.23;;;35.03;;
12871;SDS011;6504;53.766;9.626;2023-04-15T10:23:57;42.37;;;35.37;;
12871;SDS011;6504;53.766;9.626;2023-04-15T10:26:27;40.03;;;33.47;;
12871;SDS011;6504;53.766;9.626;2023-04-15T10:28:57;40.60;;;33.47;;
12871;SDS011;6504;53.766;9.626;2023-04-15T10:31:26;44.27;;;35.70;;
12871;SDS011;6504;53.766;9.626;2023-04-15T10:33:55;41.70;;;33.70;;
12871;SDS011;6504;53.766;9.626;2023-04-15T10:36:24;39.00;;;34.27;;
12871;SDS011;6504;53.766;9.626;2023-04-15T10:38:52;41.47;;;36.87;;
12871;SDS011;6504;53.766;9.626;2023-04-15T10:41:21;39.13;;;33.67;;
12871;SDS011;6504;53.766;9.626;2023-04-15T10:43:51;38.30;;;32.60;;
12871;SDS011;6504;53.766;9.626;2023-04-15T10:46:22;40.53;;;33.87;;
12871;SDS011;6504;53.766;9.626;2023-04-15T10:49:05;38.77;;;34.27;;
12871;SDS011;6504;53.766;9.626;2023-04-15T10:51:36;40.67;;;33.23;;
12871;SDS011;6504;53.766;9.626;2023-04-15T10:54:07;36.80;;;32.70;;
12871;SDS011;6504;53.766;9.626;2023-04-15T10:56:40;38.10;;;32.17;;
12871;SDS011;6504;53.766;9.626;2023-04-15T10:59:09;36.47;;;30.80;;
12871;SDS011;6504;53.766;9.626;2023-04-15T11:01:51;37.43;;;32.50;;
12871;SDS011;6504;53.766;9.626;2023-04-15T11:07:32;34.30;;;30.60;;
12871;SDS011;6504;53.766;9.626;2023-04-15T11:10:49;32.83;;;29.20;;
12871;SDS011;6504;53.766;9.626;2023-04-15T11:13:24;38.27;;;30.07;;
12871;SDS011;6504;53.766;9.626;2023-04-15T11:15:54;31.63;;;28.40;;
12871;SDS011;6504;53.766;9.626;2023-04-15T11:18:26;31.03;;;27.47;;
12871;SDS011;6504;53.766;9.626;2023-04-15T11:20:57;28.87;;;25.80;;
12871;SDS011;6504;53.766;9.626;2023-04-15T11:23:27;28.10;;;25.13;;
12871;SDS011;6504;53.766;9.626;2023-04-15T11:25:57;27.03;;;24.23;;
12871;SDS011;6504;53.766;9.626;2023-04-15T11:28:26;27.73;;;24.83;;
12871;SDS011;6504;53.766;9.626;2023-04-15T11:30:54;27.23;;;24.43;;
12871;SDS011;6504;53.766;9.626;2023-04-15T11:33:23;25.37;;;22.70;;
12871;SDS011;6504;53.766;9.626;2023-04-15T11:35:53;23.47;;;20.97;;
12871;SDS011;6504;53.766;9.626;2023-04-15T11:38:21;25.87;;;23.17;;
12871;SDS011;6504;53.766;9.626;2023-04-15T11:40:49;25.43;;;22.83;;
12871;SDS011;6504;53.766;9.626;2023-04-15T11:43:19;26.70;;;23.90;;
12871;SDS011;6504;53.766;9.626;2023-04-15T11:45:49;26.90;;;24.17;;
12871;SDS011;6504;53.766;9.626;2023-04-15T11:48:19;26.83;;;24.13;;
12871;SDS011;6504;53.766;9.626;2023-04-15T11:50:52;26.83;;;24.07;;
12871;SDS011;6504;53.766;9.626;2023-04-15T11:53:22;27.40;;;24.50;;
12871;SDS011;6504;53.766;9.626;2023-04-15T11:55:51;24.60;;;22.40;;
12871;SDS011;6504;53.766;9.626;2023-04-15T11:58:20;25.13;;;22.60;;
12871;SDS011;6504;53.766;9.626;2023-04-15T12:00:50;24.47;;;21.50;;
12871;SDS011;6504;53.766;9.626;2023-04-15T12:03:22;24.63;;;22.23;;
12871;SDS011;6504;53.766;9.626;2023-04-15T12:06:10;24.70;;;22.20;;
12871;SDS011;6504;53.766;9.626;2023-04-15T12:08:52;21.40;;;19.40;;
12871;SDS011;6504;53.766;9.626;2023-04-15T12:11:35;23.37;;;21.13;;
12871;SDS011;6504;53.766;9.626;2023-04-15T12:14:08;24.10;;;21.67;;
12871;SDS011;6504;53.766;9.626;2023-04-15T12:16:39;23.57;;;21.27;;
12871;SDS011;6504;53.766;9.626;2023-04-15T12:19:15;24.00;;;21.70;;
12871;SDS011;6504;53.766;9.626;2023-04-15T12:21:46;22.13;;;19.83;;
12871;SDS011;6504;53.766;9.626;2023-04-15T12:24:18;22.27;;;20.17;;
12871;SDS011;6504;53.766;9.626;2023-04-15T12:26:48;18.43;;;16.70;;
12871;SDS011;6504;53.766;9.626;2023-04-15T12:29:18;15.63;;;14.17;;
12871;SDS011;6504;53.766;9.626;2023-04-15T12:31:48;15.67;;;14.23;;
12871;SDS011;6504;53.766;9.626;2023-04-15T12:34:18;17.30;;;15.63;;
12871;SDS011;6504;53.766;9.626;2023-04-15T12:36:55;16.00;;;14.50;;
12871;SDS011;6504;53.766;9.626;2023-04-15T12:39:24;15.40;;;14.00;;
12871;SDS011;6504;53.766;9.626;2023-04-15T12:41:56;14.73;;;13.37;;
12871;SDS011;6504;53.766;9.626;2023-04-15T12:44:24;15.43;;;13.93;;
12871;SDS011;6504;53.766;9.626;2023-04-15T12:46:53;13.73;;;12.47;;
12871;SDS011;6504;53.766;9.626;2023-04-15T12:49:22;12.43;;;11.33;;
12871;SDS011;6504;53.766;9.626;2023-04-15T12:51:51;13.23;;;11.93;;
12871;SDS011;6504;53.766;9.626;2023-04-15T12:54:21;11.63;;;10.50;;
12871;SDS011;6504;53.766;9.626;2023-04-15T12:56:49;11.93;;;10.87;;
12871;SDS011;6504;53.766;9.626;2023-04-15T12:59:18;10.40;;;9.50;;
12871;SDS011;6504;53.766;9.626;2023-04-15T13:01:46;11.50;;;10.40;;
12871;SDS011;6504;53.766;9.626;2023-04-15T13:04:15;11.27;;;10.27;;
12871;SDS011;6504;53.766;9.626;2023-04-15T13:06:43;11.10;;;10.20;;
12871;SDS011;6504;53.766;9.626;2023-04-15T13:09:11;11.57;;;10.47;;
12871;SDS011;6504;53.766;9.626;2023-04-15T13:11:41;11.00;;;10.03;;
12871;SDS011;6504;53.766;9.626;2023-04-15T13:14:09;11.63;;;10.63;;
12871;SDS011;6504;53.766;9.626;2023-04-15T13:16:38;11.77;;;10.67;;
12871;SDS011;6504;53.766;9.626;2023-04-15T13:19:06;12.90;;;11.60;;
12871;SDS011;6504;53.766;9.626;2023-04-15T13:21:34;13.13;;;11.97;;
12871;SDS011;6504;53.766;9.626;2023-04-15T13:24:03;11.93;;;10.83;;
12871;SDS011;6504;53.766;9.626;2023-04-15T13:26:32;12.60;;;11.43;;
12871;SDS011;6504;53.766;9.626;2023-04-15T13:29:02;12.83;;;11.70;;
12871;SDS011;6504;53.766;9.626;2023-04-15T13:31:30;12.27;;;11.07;;
12871;SDS011;6504;53.766;9.626;2023-04-15T13:33:58;12.50;;;11.30;;
12871;SDS011;6504;53.766;9.626;2023-04-15T13:36:27;12.07;;;11.03;;
12871;SDS011;6504;53.766;9.626;2023-04-15T13:38:55;12.50;;;11.40;;
12871;SDS011;6504;53.766;9.626;2023-04-15T13:41:23;13.20;;;11.97;;
12871;SDS011;6504;53.766;9.626;2023-04-15T13:43:51;13.13;;;11.93;;
12871;SDS011;6504;53.766;9.626;2023-04-15T13:46:21;13.73;;;12.47;;
12871;SDS011;6504;53.766;9.626;2023-04-15T13:48:49;14.40;;;13.10;;
12871;SDS011;6504;53.766;9.626;2023-04-15T13:51:17;14.07;;;12.60;;
12871;SDS011;6504;53.766;9.626;2023-04-15T13:53:45;13.47;;;12.37;;
12871;SDS011;6504;53.766;9.626;2023-04-15T13:56:13;14.10;;;12.70;;
12871;SDS011;6504;53.766;9.626;2023-04-15T13:58:41;13.53;;;12.13;;
12871;SDS011;6504;53.766;9.626;2023-04-15T14:01:09;13.80;;;12.60;;
12871;SDS011;6504;53.766;9.626;2023-04-15T14:03:38;14.27;;;12.87;;
12871;SDS011;6504;53.766;9.626;2023-04-15T14:06:07;14.37;;;13.07;;
12871;SDS011;6504;53.766;9.626;2023-04-15T14:08:35;13.70;;;12.47;;
12871;SDS011;6504;53.766;9.626;2023-04-15T14:11:03;13.63;;;12.30;;
12871;SDS011;6504;53.766;9.626;2023-04-15T14:13:31;13.37;;;11.97;;
12871;SDS011;6504;53.766;9.626;2023-04-15T14:15:59;14.30;;;13.10;;
12871;SDS011;6504;53.766;9.626;2023-04-15T14:18:27;14.80;;;13.53;;
12871;SDS011;6504;53.766;9.626;2023-04-15T14:20:57;14.83;;;13.53;;
12871;SDS011;6504;53.766;9.626;2023-04-15T14:23:25;14.87;;;13.47;;
12871;SDS011;6504;53.766;9.626;2023-04-15T14:25:53;14.80;;;13.50;;
12871;SDS011;6504;53.766;9.626;2023-04-15T14:28:21;13.63;;;12.33;;
12871;SDS011;6504;53.766;9.626;2023-04-15T14:30:49;14.30;;;13.03;;
12871;SDS011;6504;53.766;9.626;2023-04-15T14:33:17;14.57;;;13.37;;
12871;SDS011;6504;53.766;9.626;2023-04-15T14:35:45;15.40;;;14.07;;
12871;SDS011;6504;53.766;9.626;2023-04-15T14:38:15;14.70;;;13.33;;
12871;SDS011;6504;53.766;9.626;2023-04-15T14:40:43;18.13;;;16.47;;
12871;SDS011;6504;53.766;9.626;2023-04-15T14:43:11;16.83;;;15.43;;
12871;SDS011;6504;53.766;9.626;2023-04-15T14:45:39;16.67;;;15.10;;
12871;SDS011;6504;53.766;9.626;2023-04-15T14:48:10;16.07;;;14.63;;
12871;SDS011;6504;53.766;9.626;2023-04-15T14:50:38;16.13;;;14.63;;
12871;SDS011;6504;53.766;9.626;2023-04-15T14:53:06;15.97;;;14.57;;
12871;SDS011;6504;53.766;9.626;2023-04-15T14:55:37;17.37;;;15.57;;
12871;SDS011;6504;53.766;9.626;2023-04-15T14:58:05;16.13;;;14.63;;
12871;SDS011;6504;53.766;9.626;2023-04-15T15:00:34;16.77;;;15.10;;